Time;durP1;ratioP1;P1;durP2;ratioP2;P2;SDS_P1;SDS_P2;PMS_P1;PMS_P2;Temp;Humidity;BMP_temperature;BMP_pressure;BME280_temperature;BME280_humidity;BME280_pressure;Samples;Min_cycle;Max_cycle;Signal;HPM_P1;HPM_P2
2022/05/18 00:01:35;;;;;;;5.90;2.35;;;;;;;;;;5102439;28;20203;-69
2022/05/18 00:04:04;;;;;;;2.42;2.40;;;;;;;;;;5102010;28;20542;-69
2022/05/18 00:06:30;;;;;;;2.72;2.53;;;;;;;;;;5104802;28;20230;-69
2022/05/18 00:08:56;;;;;;;3.03;2.83;;;;;;;;;;5106480;28;20199;-69
2022/05/18 00:11:23;;;;;;;4.30;2.30;;;;;;;;;;5106178;28;20195;-69
2022/05/18 00:13:52;;;;;;;2.70;2.50;;;;;;;;;;5106228;28;20191;-69
2022/05/18 00:16:19;;;;;;;3.45;2.50;;;;;;;;;;5106479;28;20199;-69
2022/05/18 00:18:45;;;;;;;3.50;2.83;;;;;;;;;;5106246;28;20199;-69
2022/05/18 00:21:12;;;;;;;4.10;3.13;;;;;;;;;;5106183;28;20427;-69
2022/05/18 00:23:38;;;;;;;3.13;2.80;;;;;;;;;;5105977;28;20211;-69
2022/05/18 00:26:05;;;;;;;3.63;2.70;;;;;;;;;;5105829;28;20196;-69
2022/05/18 00:28:32;;;;;;;2.75;2.50;;;;;;;;;;5105735;28;20437;-69
2022/05/18 00:31:00;;;;;;;3.17;2.53;;;;;;;;;;5106263;28;20263;-69
2022/05/18 00:33:28;;;;;;;2.72;2.42;;;;;;;;;;5105930;28;20391;-69
2022/05/18 00:35:56;;;;;;;2.63;2.53;;;;;;;;;;5105725;28;20518;-69
2022/05/18 00:38:23;;;;;;;3.00;2.72;;;;;;;;;;5105779;28;20537;-69
2022/05/18 00:40:50;;;;;;;3.35;3.05;;;;;;;;;;5105550;28;20200;-69
2022/05/18 00:43:17;;;;;;;3.15;2.75;;;;;;;;;;5105809;28;20459;-69
2022/05/18 00:45:44;;;;;;;3.13;2.90;;;;;;;;;;5105788;28;20364;-69
2022/05/18 00:48:11;;;;;;;3.00;2.72;;;;;;;;;;5105264;28;20200;-69
2022/05/18 00:50:38;;;;;;;4.55;2.85;;;;;;;;;;5105686;28;20200;-69
2022/05/18 00:53:06;;;;;;;3.45;2.50;;;;;;;;;;5105426;28;20394;-69
2022/05/18 00:55:35;;;;;;;3.00;2.60;;;;;;;;;;5105301;28;20203;-69
2022/05/18 00:58:05;;;;;;;3.17;2.50;;;;;;;;;;5105371;28;20200;-69
2022/05/18 01:00:34;;;;;;;2.80;2.60;;;;;;;;;;5105242;28;20203;-69
2022/05/18 01:03:05;;;;;;;4.20;2.88;;;;;;;;;;5105107;28;20530;-69
2022/05/18 01:05:35;;;;;;;2.75;2.53;;;;;;;;;;5105297;28;20389;-69
2022/05/18 01:08:02;;;;;;;2.90;2.63;;;;;;;;;;5104730;28;20203;-69
2022/05/18 01:10:29;;;;;;;3.30;2.70;;;;;;;;;;5105224;28;20203;-69
2022/05/18 01:12:55;;;;;;;2.90;2.70;;;;;;;;;;5104960;28;20218;-69
2022/05/18 01:15:22;;;;;;;2.50;2.33;;;;;;;;;;5105173;28;20399;-69
2022/05/18 01:17:49;;;;;;;5.03;3.00;;;;;;;;;;5104644;28;20195;-69
2022/05/18 01:20:18;;;;;;;4.47;2.90;;;;;;;;;;5104941;28;20218;-69
2022/05/18 01:22:52;;;;;;;3.00;2.78;;;;;;;;;;5104251;28;20196;-69
2022/05/18 01:25:23;;;;;;;3.22;3.03;;;;;;;;;;5104709;28;20445;-69
2022/05/18 01:27:51;;;;;;;4.55;2.72;;;;;;;;;;5104546;28;20199;-69
2022/05/18 01:30:17;;;;;;;2.63;2.35;;;;;;;;;;5104738;28;20199;-69
2022/05/18 01:32:45;;;;;;;2.70;2.53;;;;;;;;;;5105003;28;20196;-69
2022/05/18 01:35:12;;;;;;;5.00;3.13;;;;;;;;;;5105064;28;20211;-69
2022/05/18 01:37:38;;;;;;;3.42;3.10;;;;;;;;;;5104484;28;20369;-69
2022/05/18 01:40:09;;;;;;;3.55;2.97;;;;;;;;;;5104539;28;20206;-69
2022/05/18 01:42:37;;;;;;;3.22;3.03;;;;;;;;;;5104490;28;20196;-69
2022/05/18 01:45:05;;;;;;;3.03;2.80;;;;;;;;;;5104399;28;20219;-69
2022/05/18 01:47:33;;;;;;;3.20;3.00;;;;;;;;;;5104332;28;20196;-69
2022/05/18 01:50:00;;;;;;;3.30;3.17;;;;;;;;;;5104537;28;20218;-69
2022/05/18 01:52:26;;;;;;;3.78;2.88;;;;;;;;;;5104345;28;20200;-69
2022/05/18 01:54:52;;;;;;;5.22;3.22;;;;;;;;;;5104281;28;20229;-69
2022/05/18 01:57:18;;;;;;;3.33;3.13;;;;;;;;;;5103950;28;20195;-69
2022/05/18 01:59:45;;;;;;;4.20;2.88;;;;;;;;;;5104348;28;20424;-69
2022/05/18 02:02:12;;;;;;;2.90;2.70;;;;;;;;;;5104064;28;20200;-69
2022/05/18 02:04:39;;;;;;;3.17;2.88;;;;;;;;;;5104123;28;20215;-69
2022/05/18 02:07:05;;;;;;;3.60;3.00;;;;;;;;;;5103795;28;20196;-69
2022/05/18 02:09:32;;;;;;;3.70;3.38;;;;;;;;;;5103855;28;20203;-69
2022/05/18 02:14:38;;;;;;;3.05;2.95;;;;;;;;;;5060706;28;20247;-69
2022/05/18 02:17:05;;;;;;;5.43;2.90;;;;;;;;;;5103890;28;20200;-69
2022/05/18 02:19:32;;;;;;;3.33;3.08;;;;;;;;;;5104248;28;20229;-69
2022/05/18 02:21:59;;;;;;;3.92;3.50;;;;;;;;;;5103740;28;20196;-69
2022/05/18 02:24:25;;;;;;;3.95;3.10;;;;;;;;;;5103969;28;20215;-69
2022/05/18 02:26:51;;;;;;;3.72;3.20;;;;;;;;;;5103321;28;20241;-69
2022/05/18 02:29:17;;;;;;;3.63;3.28;;;;;;;;;;5103188;28;20196;-69
2022/05/18 02:31:44;;;;;;;3.17;3.08;;;;;;;;;;5103646;28;20503;-69
2022/05/18 02:34:10;;;;;;;3.60;3.30;;;;;;;;;;5103617;28;20223;-69
2022/05/18 02:36:38;;;;;;;3.95;3.55;;;;;;;;;;5103301;28;20210;-69
2022/05/18 02:39:04;;;;;;;4.05;3.83;;;;;;;;;;5103280;28;20227;-69
2022/05/18 02:41:30;;;;;;;3.85;3.40;;;;;;;;;;5103637;28;20495;-69
2022/05/18 02:43:59;;;;;;;3.47;3.28;;;;;;;;;;5103335;28;20215;-69
2022/05/18 02:46:25;;;;;;;3.50;3.20;;;;;;;;;;5103223;28;20199;-69
2022/05/18 02:48:52;;;;;;;3.53;3.33;;;;;;;;;;5103285;28;20233;-69
2022/05/18 02:51:18;;;;;;;6.15;4.00;;;;;;;;;;5103164;28;20196;-69
2022/05/18 02:53:46;;;;;;;4.35;3.47;;;;;;;;;;5103008;28;20202;-69
2022/05/18 02:56:12;;;;;;;4.43;3.20;;;;;;;;;;5102826;28;20195;-69
2022/05/18 02:58:39;;;;;;;3.72;3.45;;;;;;;;;;5103265;28;20227;-69
2022/05/18 03:01:07;;;;;;;3.95;3.58;;;;;;;;;;5103099;28;20241;-69
2022/05/18 03:03:33;;;;;;;3.65;3.35;;;;;;;;;;5102250;28;20289;-69
2022/05/18 03:06:00;;;;;;;3.47;3.25;;;;;;;;;;5102628;28;20227;-69
2022/05/18 03:08:26;;;;;;;3.75;3.45;;;;;;;;;;5102728;28;20203;-69
2022/05/18 03:10:53;;;;;;;3.47;3.28;;;;;;;;;;5102880;28;20203;-69
2022/05/18 03:13:20;;;;;;;3.38;3.28;;;;;;;;;;5102893;28;20196;-69
2022/05/18 03:15:47;;;;;;;4.35;3.95;;;;;;;;;;5102900;28;20272;-69
2022/05/18 03:18:13;;;;;;;3.38;3.20;;;;;;;;;;5102426;28;20203;-69
2022/05/18 03:23:36;;;;;;;4.63;3.72;;;;;;;;;;5102715;28;20516;-69
2022/05/18 03:26:05;;;;;;;4.28;3.88;;;;;;;;;;5102398;28;20531;-69
2022/05/18 03:28:31;;;;;;;4.00;3.70;;;;;;;;;;5102542;28;20196;-69
2022/05/18 03:30:57;;;;;;;3.63;3.38;;;;;;;;;;5102546;28;20502;-69
2022/05/18 03:33:24;;;;;;;4.30;3.92;;;;;;;;;;5102459;28;20196;-69
2022/05/18 03:35:51;;;;;;;4.68;4.28;;;;;;;;;;5102598;28;20386;-69
2022/05/18 03:38:17;;;;;;;3.85;3.50;;;;;;;;;;5102480;28;20195;-69
2022/05/18 03:40:44;;;;;;;4.43;4.03;;;;;;;;;;5102286;28;20196;-69
2022/05/18 03:43:11;;;;;;;4.57;3.45;;;;;;;;;;5102547;28;20195;-69
2022/05/18 03:45:38;;;;;;;4.13;3.83;;;;;;;;;;5102207;28;20219;-69
2022/05/18 03:48:06;;;;;;;6.05;3.97;;;;;;;;;;5102029;28;20202;-69
2022/05/18 03:50:32;;;;;;;3.83;3.63;;;;;;;;;;5102642;28;20234;-69
2022/05/18 03:53:00;;;;;;;3.75;3.55;;;;;;;;;;5102428;28;20444;-69
2022/05/18 03:55:26;;;;;;;5.35;3.67;;;;;;;;;;5102410;28;20210;-69
2022/05/18 03:57:53;;;;;;;4.32;3.63;;;;;;;;;;5102057;28;20519;-69
2022/05/18 04:00:21;;;;;;;5.05;3.97;;;;;;;;;;5102666;28;20195;-69
2022/05/18 04:02:48;;;;;;;4.20;3.85;;;;;;;;;;5102119;28;20261;-69
2022/05/18 04:05:15;;;;;;;4.60;3.50;;;;;;;;;;5102220;28;20400;-69
2022/05/18 04:07:42;;;;;;;3.92;3.63;;;;;;;;;;5102026;28;20241;-69
2022/05/18 04:10:09;;;;;;;5.65;4.25;;;;;;;;;;5101890;28;20199;-69
2022/05/18 04:12:35;;;;;;;4.05;3.75;;;;;;;;;;5101948;28;20513;-69
2022/05/18 04:15:02;;;;;;;5.80;3.60;;;;;;;;;;5102396;28;20417;-69
2022/05/18 04:17:30;;;;;;;4.65;4.03;;;;;;;;;;5102105;28;20231;-69
2022/05/18 04:19:56;;;;;;;5.47;4.50;;;;;;;;;;5102189;28;20195;-69
2022/05/18 04:22:23;;;;;;;5.53;3.60;;;;;;;;;;5102205;28;20196;-69
2022/05/18 04:24:50;;;;;;;5.50;4.20;;;;;;;;;;5101907;28;20211;-69
2022/05/18 04:27:16;;;;;;;9.23;3.75;;;;;;;;;;5101775;28;20204;-69
2022/05/18 04:29:42;;;;;;;4.10;3.65;;;;;;;;;;5102202;28;20196;-69
2022/05/18 04:32:09;;;;;;;5.00;3.38;;;;;;;;;;5101937;28;20296;-69
2022/05/18 04:34:38;;;;;;;4.50;4.15;;;;;;;;;;5102281;28;20440;-69
2022/05/18 04:37:04;;;;;;;4.15;3.80;;;;;;;;;;5101621;28;20196;-69
2022/05/18 04:39:31;;;;;;;4.10;3.65;;;;;;;;;;5102018;28;20203;-69
2022/05/18 04:41:57;;;;;;;6.00;3.97;;;;;;;;;;5101755;28;20522;-69
2022/05/18 04:44:23;;;;;;;7.30;3.88;;;;;;;;;;5102083;28;20196;-69
2022/05/18 04:46:49;;;;;;;4.25;3.95;;;;;;;;;;5101712;28;20208;-69
2022/05/18 04:49:16;;;;;;;5.05;3.92;;;;;;;;;;5101726;28;20196;-69
2022/05/18 04:51:43;;;;;;;3.95;3.58;;;;;;;;;;5102937;28;20203;-69
2022/05/18 04:54:09;;;;;;;6.78;3.65;;;;;;;;;;5105495;28;20372;-69
2022/05/18 04:56:36;;;;;;;4.22;3.83;;;;;;;;;;5105137;28;20421;-69
2022/05/18 04:59:02;;;;;;;4.45;3.88;;;;;;;;;;5105622;28;20200;-69
2022/05/18 05:01:30;;;;;;;4.47;3.75;;;;;;;;;;5105435;28;20196;-69
2022/05/18 05:03:56;;;;;;;6.53;4.10;;;;;;;;;;5105239;28;20284;-69
2022/05/18 05:06:22;;;;;;;4.70;4.32;;;;;;;;;;5104809;28;20227;-69
2022/05/18 05:08:50;;;;;;;4.10;3.72;;;;;;;;;;5105262;28;20533;-69
2022/05/18 05:11:17;;;;;;;4.15;3.85;;;;;;;;;;5105260;28;20222;-69
2022/05/18 05:13:44;;;;;;;4.53;4.20;;;;;;;;;;5105336;28;20195;-69
2022/05/18 05:16:11;;;;;;;6.63;5.10;;;;;;;;;;5105040;28;20199;-69
2022/05/18 05:18:37;;;;;;;5.82;5.20;;;;;;;;;;5104981;28;20203;-69
2022/05/18 05:21:04;;;;;;;8.80;5.53;;;;;;;;;;5104740;28;20196;-69
2022/05/18 05:23:30;;;;;;;6.05;5.18;;;;;;;;;;5104560;28;20195;-69
2022/05/18 05:25:58;;;;;;;9.05;5.13;;;;;;;;;;5104573;28;20224;-69
2022/05/18 05:28:24;;;;;;;6.55;5.75;;;;;;;;;;5104695;28;20527;-69
2022/05/18 05:30:50;;;;;;;15.05;5.93;;;;;;;;;;5104813;28;20188;-69
2022/05/18 05:33:17;;;;;;;8.30;5.72;;;;;;;;;;5104541;28;20195;-69
2022/05/18 05:35:43;;;;;;;7.88;6.15;;;;;;;;;;5104445;28;20210;-69
2022/05/18 05:38:10;;;;;;;12.23;6.10;;;;;;;;;;5104674;28;20246;-69
2022/05/18 05:40:37;;;;;;;13.18;6.38;;;;;;;;;;5104476;28;20202;-69
2022/05/18 05:43:07;;;;;;;8.00;6.10;;;;;;;;;;5104783;28;20203;-69
2022/05/18 05:45:33;;;;;;;13.85;6.32;;;;;;;;;;5104528;28;20265;-69
2022/05/18 05:47:59;;;;;;;14.18;6.45;;;;;;;;;;5104140;28;20274;-69
2022/05/18 05:50:25;;;;;;;11.52;6.88;;;;;;;;;;5104190;28;20557;-69
2022/05/18 05:52:52;;;;;;;8.70;7.20;;;;;;;;;;5103986;28;20503;-69
2022/05/18 05:55:19;;;;;;;18.85;8.18;;;;;;;;;;5104329;28;20206;-69
2022/05/18 05:57:45;;;;;;;16.50;7.90;;;;;;;;;;5101532;28;20496;-69
2022/05/18 06:00:13;;;;;;;16.60;8.65;;;;;;;;;;5083867;28;20539;-69
2022/05/18 06:02:40;;;;;;;17.15;7.93;;;;;;;;;;5096966;28;20216;-68
2022/05/18 06:05:06;;;;;;;14.77;7.47;;;;;;;;;;5097153;28;20559;-69
2022/05/18 06:07:33;;;;;;;10.63;7.10;;;;;;;;;;5095241;28;20214;-69
2022/05/18 06:10:00;;;;;;;8.73;6.47;;;;;;;;;;5096252;28;20219;-70
2022/05/18 06:12:26;;;;;;;7.68;6.03;;;;;;;;;;5097140;28;20425;-70
2022/05/18 06:14:53;;;;;;;7.47;6.53;;;;;;;;;;5097605;28;20445;-70
2022/05/18 06:17:20;;;;;;;9.55;6.32;;;;;;;;;;5097094;28;20341;-70
2022/05/18 06:19:47;;;;;;;9.93;6.15;;;;;;;;;;5096681;28;20295;-70
2022/05/18 06:22:13;;;;;;;10.07;6.20;;;;;;;;;;5097718;28;20545;-70
2022/05/18 06:24:40;;;;;;;10.35;6.65;;;;;;;;;;5097450;28;20434;-70
2022/05/18 06:27:07;;;;;;;8.82;6.20;;;;;;;;;;5097162;28;20262;-70
2022/05/18 06:29:34;;;;;;;8.52;6.03;;;;;;;;;;5096442;28;20532;-69
2022/05/18 06:32:00;;;;;;;10.60;6.00;;;;;;;;;;5096516;28;20214;-70
2022/05/18 06:34:28;;;;;;;12.60;5.88;;;;;;;;;;5096904;28;20208;-69
2022/05/18 06:36:54;;;;;;;10.00;6.30;;;;;;;;;;5097001;28;20207;-69
2022/05/18 06:39:20;;;;;;;9.05;5.82;;;;;;;;;;5096915;28;20261;-69
2022/05/18 06:41:47;;;;;;;8.02;5.93;;;;;;;;;;5096670;28;20219;-69
2022/05/18 06:44:13;;;;;;;9.95;5.80;;;;;;;;;;5097359;28;20762;-70
2022/05/18 06:46:40;;;;;;;5.88;5.35;;;;;;;;;;5097117;28;20227;-70
2022/05/18 06:49:07;;;;;;;10.73;5.43;;;;;;;;;;5096977;28;20207;-70
2022/05/18 06:51:36;;;;;;;7.68;4.80;;;;;;;;;;5096448;28;20213;-70
2022/05/18 06:54:02;;;;;;;9.13;4.32;;;;;;;;;;5096789;28;20208;-71
2022/05/18 06:56:30;;;;;;;5.53;4.97;;;;;;;;;;5096713;28;20578;-69
2022/05/18 06:58:57;;;;;;;5.82;4.25;;;;;;;;;;5096361;28;20215;-70
2022/05/18 07:01:23;;;;;;;5.78;4.05;;;;;;;;;;5096170;28;20406;-70
2022/05/18 07:03:50;;;;;;;8.10;5.72;;;;;;;;;;5096396;28;20223;-70
2022/05/18 07:06:17;;;;;;;9.63;6.25;;;;;;;;;;5096327;28;20228;-70
2022/05/18 07:08:45;;;;;;;9.18;5.82;;;;;;;;;;5096217;28;20220;-70
2022/05/18 07:11:12;;;;;;;13.30;4.70;;;;;;;;;;5095950;28;20219;-70
2022/05/18 07:13:38;;;;;;;7.18;3.90;;;;;;;;;;5089538;28;20587;-70
2022/05/18 07:16:05;;;;;;;10.02;3.58;;;;;;;;;;5093160;28;20207;-70
2022/05/18 07:18:33;;;;;;;6.43;3.75;;;;;;;;;;5096613;28;20519;-70
2022/05/18 07:20:59;;;;;;;6.32;3.40;;;;;;;;;;5096595;28;20214;-70
2022/05/18 07:23:26;;;;;;;4.13;3.72;;;;;;;;;;5096081;28;20534;-69
2022/05/18 07:25:54;;;;;;;3.42;3.05;;;;;;;;;;5095903;28;20238;-70
2022/05/18 07:28:21;;;;;;;4.50;3.00;;;;;;;;;;5096110;28;20214;-69
2022/05/18 07:30:47;;;;;;;10.00;5.32;;;;;;;;;;5096120;28;20208;-69
2022/05/18 07:33:13;;;;;;;8.82;6.57;;;;;;;;;;5096042;28;20269;-69
2022/05/18 07:35:39;;;;;;;7.43;4.32;;;;;;;;;;5096366;28;20207;-69
2022/05/18 07:38:06;;;;;;;6.32;3.95;;;;;;;;;;5096015;28;20211;-69
2022/05/18 07:40:33;;;;;;;6.68;3.92;;;;;;;;;;5095909;28;20211;-69
2022/05/18 07:43:01;;;;;;;6.60;3.47;;;;;;;;;;5095832;28;20211;-69
2022/05/18 07:45:28;;;;;;;3.78;2.63;;;;;;;;;;5096102;28;20306;-70
2022/05/18 07:47:55;;;;;;;5.22;3.30;;;;;;;;;;5096204;28;20260;-69
2022/05/18 07:50:21;;;;;;;6.95;6.13;;;;;;;;;;5095985;28;20211;-68
2022/05/18 07:52:47;;;;;;;5.60;3.67;;;;;;;;;;5095665;28;20208;-69
2022/05/18 07:55:13;;;;;;;4.47;2.53;;;;;;;;;;5075385;28;20431;-70
2022/05/18 07:57:40;;;;;;;2.58;2.35;;;;;;;;;;5075443;28;20208;-70
2022/05/18 08:00:09;;;;;;;6.57;2.80;;;;;;;;;;5075537;28;20212;-69
2022/05/18 08:02:36;;;;;;;4.60;2.63;;;;;;;;;;5093733;28;20311;-69
2022/05/18 08:05:02;;;;;;;2.45;2.03;;;;;;;;;;5095226;28;20247;-69
2022/05/18 08:07:29;;;;;;;2.95;2.40;;;;;;;;;;5095615;28;20478;-69
2022/05/18 08:15:24;;;;;;;4.70;2.63;;;;;;;;;;5095729;28;20527;-69
2022/05/18 08:17:50;;;;;;;4.88;2.70;;;;;;;;;;5096192;28;20211;-69
2022/05/18 08:20:19;;;;;;;7.00;2.90;;;;;;;;;;5096064;28;20364;-69
2022/05/18 08:22:45;;;;;;;2.65;2.45;;;;;;;;;;5095933;28;20546;-69
2022/05/18 08:25:12;;;;;;;3.65;3.00;;;;;;;;;;5095405;28;20446;-69
2022/05/18 08:27:40;;;;;;;6.45;3.30;;;;;;;;;;5098370;28;20219;-69
2022/05/18 08:30:07;;;;;;;5.30;2.72;;;;;;;;;;5099514;28;20538;-69
2022/05/18 08:32:35;;;;;;;6.60;3.33;;;;;;;;;;5099567;28;20391;-69
2022/05/18 08:35:03;;;;;;;8.27;3.45;;;;;;;;;;5098998;28;20533;-70
2022/05/18 08:37:29;;;;;;;3.28;2.60;;;;;;;;;;5099085;28;20409;-69
2022/05/18 08:39:56;;;;;;;5.28;2.65;;;;;;;;;;5098890;28;20541;-70
2022/05/18 08:42:22;;;;;;;3.45;2.47;;;;;;;;;;5099143;28;20440;-69
2022/05/18 08:44:50;;;;;;;3.38;2.55;;;;;;;;;;5099026;28;20524;-69
2022/05/18 08:47:18;;;;;;;2.67;2.47;;;;;;;;;;5098646;28;20235;-70
2022/05/18 08:49:51;;;;;;;5.68;2.90;;;;;;;;;;5099204;28;20440;-70
2022/05/18 08:52:25;;;;;;;2.70;2.40;;;;;;;;;;5099185;28;20305;-70
2022/05/18 08:54:55;;;;;;;4.80;2.95;;;;;;;;;;5098952;28;20233;-69
2022/05/18 08:57:24;;;;;;;4.10;2.70;;;;;;;;;;5098405;28;20211;-69
2022/05/18 08:59:53;;;;;;;4.45;3.40;;;;;;;;;;5098789;28;20211;-69
2022/05/18 09:02:21;;;;;;;5.97;4.82;;;;;;;;;;5098998;28;20211;-70
2022/05/18 09:04:52;;;;;;;6.95;2.95;;;;;;;;;;5098981;28;20218;-70
2022/05/18 09:07:21;;;;;;;4.55;2.42;;;;;;;;;;5098431;28;20248;-70
2022/05/18 09:12:34;;;;;;;6.13;3.10;;;;;;;;;;5098941;28;20512;-70
2022/05/18 09:15:03;;;;;;;2.72;2.53;;;;;;;;;;5098980;28;20214;-70
2022/05/18 09:17:34;;;;;;;5.85;2.90;;;;;;;;;;5098163;28;20507;-69
2022/05/18 09:20:12;;;;;;;2.55;2.17;;;;;;;;;;5098823;28;20564;-69
2022/05/18 09:22:44;;;;;;;3.90;3.60;;;;;;;;;;5098863;28;20521;-70
2022/05/18 09:25:20;;;;;;;3.80;3.50;;;;;;;;;;5098922;28;20340;-70
2022/05/18 09:27:56;;;;;;;3.03;2.28;;;;;;;;;;5098311;28;20227;-69
2022/05/18 09:30:25;;;;;;;3.00;1.98;;;;;;;;;;5098335;28;20383;-70
2022/05/18 09:32:59;;;;;;;5.32;2.40;;;;;;;;;;5098341;28;20252;-69
2022/05/18 09:35:36;;;;;;;2.25;2.05;;;;;;;;;;5098481;28;20211;-69
2022/05/18 09:38:04;;;;;;;3.03;2.10;;;;;;;;;;5098120;28;20211;-69
2022/05/18 09:40:32;;;;;;;5.93;2.83;;;;;;;;;;5098207;28;20541;-69
2022/05/18 09:43:00;;;;;;;3.25;1.83;;;;;;;;;;5098204;28;20207;-69
2022/05/18 09:45:29;;;;;;;2.20;1.95;;;;;;;;;;5098374;28;20256;-69
2022/05/18 09:47:57;;;;;;;1.73;1.73;;;;;;;;;;5097949;28;20539;-69
2022/05/18 09:50:23;;;;;;;2.95;2.05;;;;;;;;;;5097457;28;21136;-69
2022/05/18 09:52:52;;;;;;;1.92;1.80;;;;;;;;;;5098036;28;20234;-70
2022/05/18 09:55:20;;;;;;;2.58;2.00;;;;;;;;;;5098011;28;20208;-70
2022/05/18 09:57:49;;;;;;;2.85;1.90;;;;;;;;;;5097973;28;20511;-71
2022/05/18 10:00:17;;;;;;;4.30;1.90;;;;;;;;;;5097004;28;20286;-70
2022/05/18 10:08:31;;;;;;;5.70;1.77;;;;;;;;;;5075257;28;20253;-70
2022/05/18 10:10:59;;;;;;;2.47;1.88;;;;;;;;;;5074691;28;20211;-69
2022/05/18 10:13:28;;;;;;;3.20;1.98;;;;;;;;;;5085975;28;20214;-70
2022/05/18 10:16:01;;;;;;;2.30;1.95;;;;;;;;;;5098206;28;20202;-69
2022/05/18 10:18:32;;;;;;;3.15;1.83;;;;;;;;;;5098263;28;20211;-70
2022/05/18 10:21:10;;;;;;;2.50;1.98;;;;;;;;;;5097567;28;20257;-71
2022/05/18 10:23:40;;;;;;;3.20;2.00;;;;;;;;;;5097817;28;20210;-69
2022/05/18 10:26:09;;;;;;;2.00;1.75;;;;;;;;;;5097719;28;20207;-70
2022/05/18 10:28:40;;;;;;;3.72;2.10;;;;;;;;;;5097598;28;20230;-70
2022/05/18 10:31:08;;;;;;;1.90;1.80;;;;;;;;;;5097647;28;20408;-69
2022/05/18 10:33:35;;;;;;;2.13;1.85;;;;;;;;;;5098149;28;20214;-69
2022/05/18 10:36:09;;;;;;;2.63;1.88;;;;;;;;;;5097653;28;20207;-70
2022/05/18 10:38:36;;;;;;;2.55;1.90;;;;;;;;;;5097447;28;20211;-71
2022/05/18 10:41:12;;;;;;;2.70;1.98;;;;;;;;;;5097449;28;20248;-69
2022/05/18 10:43:39;;;;;;;3.28;2.20;;;;;;;;;;5097730;28;20213;-70
2022/05/18 10:46:10;;;;;;;3.22;2.10;;;;;;;;;;5097476;28;20207;-70
2022/05/18 10:48:36;;;;;;;3.55;1.88;;;;;;;;;;5098680;28;20267;-70
2022/05/18 10:51:06;;;;;;;2.05;1.85;;;;;;;;;;5099746;28;20207;-70
2022/05/18 10:53:34;;;;;;;3.55;1.90;;;;;;;;;;5097562;28;20214;-70
2022/05/18 10:56:04;;;;;;;2.13;1.50;;;;;;;;;;5097205;28;20206;-70
2022/05/18 10:58:34;;;;;;;4.10;1.85;;;;;;;;;;5098287;28;20208;-70
2022/05/18 11:01:02;;;;;;;4.13;1.90;;;;;;;;;;5097001;28;20214;-70
2022/05/18 11:03:31;;;;;;;3.20;1.70;;;;;;;;;;5096709;28;20434;-71
2022/05/18 11:06:00;;;;;;;1.88;1.77;;;;;;;;;;5096746;28;20230;-71
2022/05/18 11:08:28;;;;;;;3.00;1.80;;;;;;;;;;5096381;28;20238;-71
2022/05/18 11:10:58;;;;;;;2.30;1.63;;;;;;;;;;5100202;28;20511;-72
2022/05/18 11:13:29;;;;;;;1.73;1.63;;;;;;;;;;5100066;28;20549;-71
2022/05/18 11:16:01;;;;;;;4.38;1.90;;;;;;;;;;5096936;28;20229;-70
2022/05/18 11:18:30;;;;;;;2.63;2.00;;;;;;;;;;5096800;28;20408;-70
2022/05/18 11:21:06;;;;;;;2.33;1.80;;;;;;;;;;5096969;28;20399;-70
2022/05/18 11:23:39;;;;;;;3.10;1.50;;;;;;;;;;5096811;28;20219;-71
2022/05/18 11:26:10;;;;;;;2.50;1.85;;;;;;;;;;5096804;28;20264;-71
2022/05/18 11:28:41;;;;;;;5.43;1.52;;;;;;;;;;5096880;28;20197;-71
2022/05/18 11:31:20;;;;;;;1.52;1.52;;;;;;;;;;5097096;28;20207;-71
2022/05/18 11:33:50;;;;;;;2.00;1.80;;;;;;;;;;5096062;28;20210;-71
2022/05/18 11:36:20;;;;;;;2.65;1.80;;;;;;;;;;5096693;28;20660;-70
2022/05/18 11:38:52;;;;;;;1.92;1.70;;;;;;;;;;5096309;28;20208;-71
2022/05/18 11:41:25;;;;;;;2.13;1.80;;;;;;;;;;5096809;28;20207;-71
2022/05/18 11:43:57;;;;;;;2.97;1.83;;;;;;;;;;5096724;28;20210;-71
2022/05/18 11:46:40;;;;;;;3.58;2.13;;;;;;;;;;5096300;28;20453;-71
2022/05/18 11:49:11;;;;;;;2.67;1.60;;;;;;;;;;5096685;28;20207;-71
2022/05/18 11:51:41;;;;;;;2.45;1.58;;;;;;;;;;5097042;28;20433;-71
2022/05/18 11:54:12;;;;;;;1.75;1.65;;;;;;;;;;5096995;28;20214;-70
2022/05/18 11:56:44;;;;;;;2.20;1.48;;;;;;;;;;5096581;28;20204;-71
2022/05/18 11:59:29;;;;;;;1.98;1.77;;;;;;;;;;5096226;28;20207;-71
2022/05/18 12:02:02;;;;;;;6.90;2.05;;;;;;;;;;5098628;28;20418;-71
2022/05/18 12:04:38;;;;;;;2.03;1.73;;;;;;;;;;5101109;28;20218;-71
2022/05/18 12:07:19;;;;;;;2.72;1.67;;;;;;;;;;5100731;28;20227;-71
2022/05/18 12:09:52;;;;;;;1.73;1.63;;;;;;;;;;5100187;28;20530;-71
2022/05/18 12:12:23;;;;;;;2.60;1.70;;;;;;;;;;5100635;28;20221;-71
2022/05/18 12:14:54;;;;;;;2.35;1.90;;;;;;;;;;5100432;28;20245;-70
2022/05/18 12:17:24;;;;;;;2.55;1.70;;;;;;;;;;5100264;28;20199;-71
2022/05/18 12:19:54;;;;;;;1.90;1.75;;;;;;;;;;5099842;28;20211;-71
2022/05/18 12:22:22;;;;;;;2.63;1.85;;;;;;;;;;5100194;28;20218;-71
2022/05/18 12:24:49;;;;;;;3.15;1.60;;;;;;;;;;5100145;28;20250;-71
2022/05/18 12:27:16;;;;;;;1.63;1.52;;;;;;;;;;5099972;28;20227;-71
2022/05/18 12:29:43;;;;;;;5.10;1.40;;;;;;;;;;5099354;28;20207;-71
2022/05/18 12:32:10;;;;;;;1.60;1.50;;;;;;;;;;5099981;28;20203;-71
2022/05/18 12:34:44;;;;;;;3.08;2.00;;;;;;;;;;5099434;28;20518;-71
2022/05/18 12:37:21;;;;;;;1.77;1.67;;;;;;;;;;5099603;28;20203;-71
2022/05/18 12:39:49;;;;;;;3.25;1.52;;;;;;;;;;5099490;28;20218;-70
2022/05/18 12:42:16;;;;;;;1.88;1.50;;;;;;;;;;5100080;28;20226;-71
2022/05/18 12:44:43;;;;;;;3.20;1.80;;;;;;;;;;5100513;28;20208;-71
2022/05/18 12:47:21;;;;;;;1.92;1.75;;;;;;;;;;5099564;28;20230;-71
2022/05/18 12:49:51;;;;;;;1.50;1.50;;;;;;;;;;5099734;28;20553;-70
2022/05/18 12:52:31;;;;;;;2.10;1.80;;;;;;;;;;5099999;28;20215;-71
2022/05/18 12:55:01;;;;;;;6.70;2.10;;;;;;;;;;5099995;28;20211;-70
2022/05/18 12:57:42;;;;;;;1.48;1.38;;;;;;;;;;5099713;28;20240;-71
2022/05/18 13:00:22;;;;;;;2.40;1.77;;;;;;;;;;5099229;28;20440;-71
2022/05/18 13:02:49;;;;;;;1.70;1.55;;;;;;;;;;5099647;28;20222;-71
2022/05/18 13:05:35;;;;;;;3.20;1.95;;;;;;;;;;5098973;28;20288;-71
2022/05/18 13:08:04;;;;;;;2.15;1.77;;;;;;;;;;5098560;28;20245;-71
2022/05/18 13:10:33;;;;;;;2.35;1.63;;;;;;;;;;5098647;28;20215;-71
2022/05/18 13:13:01;;;;;;;3.22;1.60;;;;;;;;;;5098358;28;20257;-71
2022/05/18 13:15:39;;;;;;;3.00;1.70;;;;;;;;;;5098615;28;20214;-71
2022/05/18 13:18:11;;;;;;;3.20;1.35;;;;;;;;;;5098401;28;20241;-71
2022/05/18 13:20:52;;;;;;;2.35;1.60;;;;;;;;;;5098398;28;20219;-71
2022/05/18 13:23:36;;;;;;;2.97;1.70;;;;;;;;;;5098758;28;20406;-71
2022/05/18 13:26:06;;;;;;;5.05;1.40;;;;;;;;;;5098313;28;20214;-71
2022/05/18 13:28:34;;;;;;;2.42;1.58;;;;;;;;;;5098421;28;20234;-71
2022/05/18 13:31:02;;;;;;;2.15;1.45;;;;;;;;;;5098726;28;20529;-71
2022/05/18 13:33:29;;;;;;;6.75;1.50;;;;;;;;;;5098552;28;20214;-71
2022/05/18 13:35:57;;;;;;;4.70;1.38;;;;;;;;;;5098759;28;20445;-71
2022/05/18 13:38:25;;;;;;;5.45;1.60;;;;;;;;;;5098373;28;20207;-71
2022/05/18 13:40:55;;;;;;;2.58;1.20;;;;;;;;;;5098236;28;20203;-71
2022/05/18 13:43:22;;;;;;;4.35;1.48;;;;;;;;;;5098348;28;20254;-72
2022/05/18 13:45:51;;;;;;;2.13;1.30;;;;;;;;;;5097571;28;20264;-71
2022/05/18 13:48:17;;;;;;;1.40;1.10;;;;;;;;;;5097764;28;20298;-71
2022/05/18 13:50:48;;;;;;;1.55;1.35;;;;;;;;;;5098213;28;20207;-71
2022/05/18 13:53:29;;;;;;;2.40;1.50;;;;;;;;;;5098110;28;20215;-71
2022/05/18 13:55:58;;;;;;;3.20;1.55;;;;;;;;;;5098029;28;20211;-72
2022/05/18 13:58:25;;;;;;;2.25;1.38;;;;;;;;;;5097847;28;20210;-72
2022/05/18 14:00:55;;;;;;;2.08;1.30;;;;;;;;;;5097821;28;20208;-72
2022/05/18 14:03:22;;;;;;;3.85;1.33;;;;;;;;;;5097631;28;20207;-72
2022/05/18 14:05:49;;;;;;;2.08;1.35;;;;;;;;;;5097545;28;20230;-72
2022/05/18 14:08:23;;;;;;;3.22;1.30;;;;;;;;;;5097189;28;20234;-71
2022/05/18 14:10:49;;;;;;;1.60;1.50;;;;;;;;;;5097310;28;20203;-72
2022/05/18 14:13:15;;;;;;;1.75;1.40;;;;;;;;;;5097471;28;20519;-72
2022/05/18 14:15:42;;;;;;;3.10;1.60;;;;;;;;;;5097843;28;20215;-72
2022/05/18 14:18:10;;;;;;;2.05;1.60;;;;;;;;;;5097607;28;20394;-72
2022/05/18 14:20:39;;;;;;;3.03;1.85;;;;;;;;;;5097802;28;20519;-72
2022/05/18 14:23:07;;;;;;;1.70;1.63;;;;;;;;;;5097794;28;20222;-71
2022/05/18 14:25:36;;;;;;;2.95;1.67;;;;;;;;;;5097022;28;20215;-71
2022/05/18 14:28:05;;;;;;;1.85;1.38;;;;;;;;;;5097452;28;20294;-72
2022/05/18 14:30:34;;;;;;;3.47;1.90;;;;;;;;;;5097726;28;20207;-72
2022/05/18 14:33:01;;;;;;;1.88;1.48;;;;;;;;;;5097775;28;20260;-72
2022/05/18 14:35:30;;;;;;;2.97;1.50;;;;;;;;;;5097373;28;20215;-72
2022/05/18 14:37:58;;;;;;;2.72;1.77;;;;;;;;;;5096562;28;20240;-71
2022/05/18 14:40:26;;;;;;;3.08;1.80;;;;;;;;;;5097390;28;20510;-71
2022/05/18 14:42:56;;;;;;;2.00;1.48;;;;;;;;;;5097705;28;20235;-72
2022/05/18 14:45:25;;;;;;;1.92;1.65;;;;;;;;;;5097405;28;20245;-72
2022/05/18 14:47:53;;;;;;;1.80;1.70;;;;;;;;;;5097287;28;20497;-72
2022/05/18 14:50:24;;;;;;;3.63;1.52;;;;;;;;;;5097020;28;20494;-72
2022/05/18 14:52:54;;;;;;;1.52;1.50;;;;;;;;;;5097618;28;20199;-72
2022/05/18 14:55:24;;;;;;;1.88;1.67;;;;;;;;;;5097239;28;20286;-71
2022/05/18 14:57:51;;;;;;;3.05;1.73;;;;;;;;;;5097428;28;20222;-72
2022/05/18 15:00:22;;;;;;;1.70;1.60;;;;;;;;;;5097049;28;20281;-72
2022/05/18 15:02:50;;;;;;;2.55;1.75;;;;;;;;;;5097428;28;20215;-71
2022/05/18 15:05:17;;;;;;;1.60;1.50;;;;;;;;;;5097389;28;20439;-72
2022/05/18 15:07:45;;;;;;;1.98;1.70;;;;;;;;;;5098354;28;20424;-72
2022/05/18 15:10:17;;;;;;;1.75;1.58;;;;;;;;;;5091929;28;20210;-72